Time;durP1;ratioP1;P1;durP2;ratioP2;P2;SDS_P1;SDS_P2;PMS_P1;PMS_P2;Temp;Humidity;BMP_temperature;BMP_pressure;BME280_temperature;BME280_humidity;BME280_pressure;Samples;Min_cycle;Max_cycle;Signal;HPM_P1;HPM_P2
2021/07/31 00:00:24;;;;;;;;;;;;;;;18.31;100.00;95468.25;1049154;28;19920;-65
2021/07/31 00:01:01;;;;;;;;;;;;;;;18.33;100.00;95466.00;1049244;28;19952;-65
2021/07/31 00:01:33;;;;;;;;;;;;;;;18.34;100.00;95473.78;1053718;28;19912;-65
2021/07/31 00:02:03;;;;;;;;;;;;;;;18.34;100.00;95467.59;1053407;28;19958;-65
2021/07/31 00:02:34;;;;;;;;;;;;;;;18.35;100.00;95461.03;1053580;28;19923;-65
2021/07/31 00:03:04;;;;;;;;;;;;;;;18.35;100.00;95461.84;1052931;28;19913;-65
2021/07/31 00:03:35;;;;;;;;;;;;;;;18.36;100.00;95457.22;1053509;28;20372;-65
2021/07/31 00:04:05;;;;;;;;;;;;;;;18.37;100.00;95462.28;1053776;28;19919;-65
2021/07/31 00:04:35;;;;;;;;;;;;;;;18.37;100.00;95456.88;1053636;28;19912;-65
2021/07/31 00:05:06;;;;;;;;;;;;;;;18.37;100.00;95462.28;1053678;28;19954;-65
2021/07/31 00:05:36;;;;;;;;;;;;;;;18.38;100.00;95460.41;1053735;28;20391;-65
2021/07/31 00:06:07;;;;;;;;;;;;;;;18.41;100.00;95465.13;1053683;28;20296;-65
2021/07/31 00:06:37;;;;;;;;;;;;;;;18.39;100.00;95461.97;1053724;28;19964;-65
2021/07/31 00:07:07;;;;;;;;;;;;;;;18.39;100.00;95467.38;1053612;28;19947;-65
2021/07/31 00:07:37;;;;;;;;;;;;;;;18.38;100.00;95463.09;1053699;28;20009;-64
2021/07/31 00:08:08;;;;;;;;;;;;;;;18.40;100.00;95468.97;1053645;28;20369;-65
2021/07/31 00:08:38;;;;;;;;;;;;;;;18.40;100.00;95463.53;1053726;28;19916;-65
2021/07/31 00:09:08;;;;;;;;;;;;;;;18.42;100.00;95469.41;1053660;28;19912;-65
2021/07/31 00:09:39;;;;;;;;;;;;;;;18.41;100.00;95471.31;1053677;28;19916;-65
2021/07/31 00:10:10;;;;;;;;;;;;;;;18.42;100.00;95467.50;1053720;28;19916;-65
2021/07/31 00:10:40;;;;;;;;;;;;;;;18.43;100.00;95469.09;1053716;28;19916;-65
2021/07/31 00:11:11;;;;;;;;;;;;;;;18.44;100.00;95464.47;1053776;28;19919;-65
2021/07/31 00:11:42;;;;;;;;;;;;;;;18.44;100.00;95476.09;1053584;28;19919;-65
2021/07/31 00:12:12;;;;;;;;;;;;;;;18.44;100.00;95478.00;1053613;28;20289;-65
2021/07/31 00:12:42;;;;;;;;;;;;;;;18.41;100.00;95475.94;1053722;28;19951;-65
2021/07/31 00:13:13;;;;;;;;;;;;;;;18.42;100.00;95480.22;1053658;28;19916;-65
2021/07/31 00:13:43;;;;;;;;;;;;;;;18.40;100.00;95475.16;1053527;28;19912;-65
2021/07/31 00:14:13;;;;;;;;;;;;;;;18.39;100.00;95479.00;1053721;28;19991;-64
2021/07/31 00:14:44;;;;;;;;;;;;;;;18.38;100.00;95473.91;1053607;28;19916;-65
2021/07/31 00:15:14;;;;;;;;;;;;;;;18.36;100.00;95466.13;1053740;28;19919;-65
2021/07/31 00:15:44;;;;;;;;;;;;;;;18.36;100.00;95468.03;1053614;28;19980;-65
2021/07/31 00:16:14;;;;;;;;;;;;;;;18.35;100.00;95469.16;1053116;28;19931;-65
2021/07/31 00:16:45;;;;;;;;;;;;;;;18.35;100.00;95478.06;1053355;28;19920;-65
2021/07/31 00:17:15;;;;;;;;;;;;;;;18.36;100.00;95482.34;1053696;28;20333;-65
2021/07/31 00:17:45;;;;;;;;;;;;;;;18.35;100.00;95477.28;1053573;28;20261;-65
2021/07/31 00:18:16;;;;;;;;;;;;;;;18.34;100.00;95484.59;1053732;28;20009;-65
2021/07/31 00:18:46;;;;;;;;;;;;;;;18.36;100.00;95478.84;1053679;28;19924;-65
2021/07/31 00:19:16;;;;;;;;;;;;;;;18.33;100.00;95480.31;1053692;28;19908;-65
2021/07/31 00:19:46;;;;;;;;;;;;;;;18.31;100.00;95481.75;1053579;28;19920;-65
2021/07/31 00:20:17;;;;;;;;;;;;;;;18.28;100.00;95479.75;1053676;28;19946;-65
2021/07/31 00:20:47;;;;;;;;;;;;;;;18.29;100.00;95479.41;1053597;28;20321;-65
2021/07/31 00:21:17;;;;;;;;;;;;;;;18.29;100.00;95479.41;1053580;28;19919;-65
2021/07/31 00:21:47;;;;;;;;;;;;;;;18.29;100.00;95482.09;1053572;28;19950;-65
2021/07/31 00:22:18;;;;;;;;;;;;;;;18.30;100.00;95478.28;1053674;28;19942;-65
2021/07/31 00:22:48;;;;;;;;;;;;;;;18.30;100.00;95474.78;1053613;28;19912;-65
2021/07/31 00:23:18;;;;;;;;;;;;;;;18.31;100.00;95484.47;1053666;28;20297;-65
2021/07/31 00:23:49;;;;;;;;;;;;;;;18.30;100.00;95478.28;1053629;28;19912;-65
2021/07/31 00:24:19;;;;;;;;;;;;;;;18.30;100.00;95472.84;1053637;28;19936;-65
2021/07/31 00:24:49;;;;;;;;;;;;;;;18.30;100.00;95472.06;1053625;28;19912;-65
2021/07/31 00:25:19;;;;;;;;;;;;;;;18.30;100.00;95475.56;1053669;28;19951;-65
2021/07/31 00:25:50;;;;;;;;;;;;;;;18.30;100.00;95472.84;1053630;28;19912;-65
2021/07/31 00:26:20;;;;;;;;;;;;;;;18.29;100.00;95474.00;1053573;28;19969;-65
2021/07/31 00:26:50;;;;;;;;;;;;;;;18.32;100.00;95476.00;1053597;28;19913;-65
2021/07/31 00:27:21;;;;;;;;;;;;;;;18.34;100.00;95475.69;1053672;28;19970;-66
2021/07/31 00:27:51;;;;;;;;;;;;;;;18.29;100.00;95465.09;1053641;28;19961;-65
2021/07/31 00:28:22;;;;;;;;;;;;;;;18.30;100.00;95469.38;1053556;28;19946;-65
2021/07/31 00:28:52;;;;;;;;;;;;;;;18.28;100.00;95475.13;1053498;28;20368;-63
2021/07/31 00:29:23;;;;;;;;;;;;;;;18.29;100.00;95478.59;1053668;28;20292;-64
2021/07/31 00:29:53;;;;;;;;;;;;;;;18.30;100.00;95480.19;1053393;28;19920;-65
2021/07/31 00:30:25;;;;;;;;;;;;;;;18.29;100.00;95471.28;1053567;28;19912;-65
2021/07/31 00:30:55;;;;;;;;;;;;;;;18.30;100.00;95477.47;1053643;28;20021;-65
2021/07/31 00:31:25;;;;;;;;;;;;;;;18.28;100.00;95477.03;1053646;28;19941;-65
2021/07/31 00:31:56;;;;;;;;;;;;;;;18.28;100.00;95471.63;1053626;28;19977;-65
2021/07/31 00:32:26;;;;;;;;;;;;;;;18.28;100.00;95468.91;1053428;28;20339;-65
2021/07/31 00:32:57;;;;;;;;;;;;;;;18.30;100.00;95474.78;1053537;28;19919;-65
2021/07/31 00:33:27;;;;;;;;;;;;;;;18.28;100.00;95474.31;1053598;28;19924;-65
2021/07/31 00:33:57;;;;;;;;;;;;;;;18.27;100.00;95470.00;1053604;28;19951;-65
2021/07/31 00:34:28;;;;;;;;;;;;;;;18.27;100.00;95470.00;1053579;28;20384;-65
2021/07/31 00:34:58;;;;;;;;;;;;;;;18.27;100.00;95464.59;1053378;28;19912;-65
2021/07/31 00:35:28;;;;;;;;;;;;;;;18.27;100.00;95465.44;1053609;28;19908;-65
2021/07/31 00:35:59;;;;;;;;;;;;;;;18.27;100.00;95467.31;1053657;28;19908;-65
2021/07/31 00:36:29;;;;;;;;;;;;;;;18.23;100.00;95463.72;1053527;28;20277;-65
2021/07/31 00:36:59;;;;;;;;;;;;;;;18.22;100.00;95457.50;1053674;28;19907;-65
2021/07/31 00:37:29;;;;;;;;;;;;;;;18.20;100.00;95459.75;1053586;28;19944;-65
2021/07/31 00:38:00;;;;;;;;;;;;;;;18.21;100.00;95461.31;1053643;28;19912;-65
2021/07/31 00:38:30;;;;;;;;;;;;;;;18.18;100.00;95462.00;1053552;28;20312;-65
2021/07/31 00:39:00;;;;;;;;;;;;;;;18.21;100.00;95458.59;1053534;28;20281;-65
2021/07/31 00:39:38;;;;;;;;;;;;;;;18.20;100.00;95459.75;1053652;28;19932;-64
2021/07/31 00:40:08;;;;;;;;;;;;;;;18.16;100.00;95462.31;1053619;28;19907;-65
2021/07/31 00:40:38;;;;;;;;;;;;;;;18.14;100.00;95453.75;1053447;28;19904;-65
2021/07/31 00:41:09;;;;;;;;;;;;;;;18.16;100.00;95459.59;1053596;28;19959;-65
2021/07/31 00:41:39;;;;;;;;;;;;;;;18.15;100.00;95460.72;1053645;28;19919;-65
2021/07/31 00:42:09;;;;;;;;;;;;;;;18.14;100.00;95458.38;1053598;28;19912;-65
2021/07/31 00:42:40;;;;;;;;;;;;;;;18.15;100.00;95457.25;1053505;28;19948;-65
2021/07/31 00:43:10;;;;;;;;;;;;;;;18.16;100.00;95456.09;1053556;28;19912;-65
2021/07/31 00:43:40;;;;;;;;;;;;;;;18.16;100.00;95456.91;1053461;28;19919;-65
2021/07/31 00:44:11;;;;;;;;;;;;;;;18.15;100.00;95454.53;1053531;28;20274;-65
2021/07/31 00:44:41;;;;;;;;;;;;;;;18.14;100.00;95452.97;1053434;28;19912;-65
2021/07/31 00:45:11;;;;;;;;;;;;;;;18.14;100.00;95458.38;1053302;28;19942;-65
2021/07/31 00:45:42;;;;;;;;;;;;;;;18.12;100.00;95452.50;1053623;28;19959;-65
2021/07/31 00:46:12;;;;;;;;;;;;;;;18.13;100.00;95448.69;1049108;28;19917;-65
2021/07/31 00:46:42;;;;;;;;;;;;;;;18.11;100.00;95453.59;1053298;28;19912;-65
2021/07/31 00:47:13;;;;;;;;;;;;;;;18.14;100.00;95453.75;1053219;28;20385;-64
2021/07/31 00:47:43;;;;;;;;;;;;;;;18.11;100.00;95446.28;1049081;28;20023;-65
2021/07/31 00:48:13;;;;;;;;;;;;;;;18.09;100.00;95451.25;1053245;28;20356;-64
2021/07/31 00:48:43;;;;;;;;;;;;;;;18.11;100.00;95448.19;1049076;28;19909;-64
2021/07/31 00:49:14;;;;;;;;;;;;;;;18.10;100.00;95455.53;1049023;28;19952;-64
2021/07/31 00:49:45;;;;;;;;;;;;;;;18.11;100.00;95457.09;1049150;28;19908;-65
2021/07/31 00:50:15;;;;;;;;;;;;;;;18.12;100.00;95452.50;1049074;28;19912;-65
2021/07/31 00:50:45;;;;;;;;;;;;;;;18.13;100.00;95454.88;1049105;28;19913;-64
2021/07/31 00:51:16;;;;;;;;;;;;;;;18.15;100.00;95451.81;1049008;28;19916;-65
2021/07/31 00:51:46;;;;;;;;;;;;;;;18.12;100.00;95449.81;1049216;28;20407;-65
2021/07/31 00:52:17;;;;;;;;;;;;;;;18.13;100.00;95454.88;1053568;28;19916;-64
2021/07/31 00:52:47;;;;;;;;;;;;;;;18.12;100.00;95461.41;1053552;28;19908;-64
2021/07/31 00:53:17;;;;;;;;;;;;;;;18.15;100.00;95454.53;1053538;28;19919;-64
2021/07/31 00:53:47;;;;;;;;;;;;;;;18.14;100.00;95461.06;1049101;28;20392;-65
2021/07/31 00:54:18;;;;;;;;;;;;;;;18.17;100.00;95460.41;1049060;28;20448;-64
2021/07/31 00:54:48;;;;;;;;;;;;;;;18.11;100.00;95462.50;1049079;28;20041;-64
2021/07/31 00:55:18;;;;;;;;;;;;;;;18.08;100.00;95455.06;1049039;28;19924;-64
2021/07/31 00:55:49;;;;;;;;;;;;;;;18.03;100.00;95459.88;1049083;28;20327;-65
2021/07/31 00:56:19;;;;;;;;;;;;;;;18.04;100.00;95459.56;1053290;28;19963;-65
2021/07/31 00:56:49;;;;;;;;;;;;;;;18.07;100.00;95458.91;1053196;28;19908;-64
2021/07/31 00:57:20;;;;;;;;;;;;;;;18.09;100.00;95459.34;1048937;28;19921;-65
2021/07/31 00:57:50;;;;;;;;;;;;;;;18.08;100.00;95457.00;1049030;28;19905;-65
2021/07/31 00:58:20;;;;;;;;;;;;;;;18.09;100.00;95462.06;1044939;28;19919;-64
2021/07/31 00:58:50;;;;;;;;;;;;;;;18.08;100.00;95463.19;1048886;28;19948;-65
2021/07/31 00:59:21;;;;;;;;;;;;;;;18.09;100.00;95464.75;1053233;28;19916;-64
2021/07/31 00:59:51;;;;;;;;;;;;;;;18.09;100.00;95467.47;1055787;28;19965;-65
2021/07/31 01:00:21;;;;;;;;;;;;;;;18.09;100.00;95459.34;1053233;28;19967;-64
2021/07/31 01:00:52;;;;;;;;;;;;;;;18.10;100.00;95465.56;1049258;28;20003;-64
2021/07/31 01:01:22;;;;;;;;;;;;;;;18.12;100.00;95468.72;1052872;28;20327;-65
2021/07/31 01:01:52;;;;;;;;;;;;;;;18.13;100.00;95470.31;1053502;28;20261;-64
2021/07/31 01:02:23;;;;;;;;;;;;;;;18.13;100.00;95473.00;1053490;28;19908;-65
2021/07/31 01:02:53;;;;;;;;;;;;;;;18.11;100.00;95478.72;1053311;28;19912;-65
2021/07/31 01:03:23;;;;;;;;;;;;;;;18.12;100.00;95471.44;1053505;28;19966;-65
2021/07/31 01:03:53;;;;;;;;;;;;;;;18.11;100.00;95469.84;1053481;28;20254;-65
2021/07/31 01:04:24;;;;;;;;;;;;;;;18.13;100.00;95473.00;1053503;28;19916;-65
2021/07/31 01:04:54;;;;;;;;;;;;;;;18.11;100.00;95477.94;1048914;28;19916;-65
2021/07/31 01:05:24;;;;;;;;;;;;;;;18.12;100.00;95474.94;1048928;28;20422;-65
2021/07/31 01:05:54;;;;;;;;;;;;;;;18.13;100.00;95470.31;1049005;28;19920;-64
2021/07/31 01:06:25;;;;;;;;;;;;;;;18.16;100.00;95475.03;1049083;28;19960;-64
2021/07/31 01:06:55;;;;;;;;;;;;;;;18.15;100.00;95479.66;1049001;28;19908;-65
2021/07/31 01:07:25;;;;;;;;;;;;;;;18.16;100.00;95478.53;1044875;28;19966;-64
2021/07/31 01:07:56;;;;;;;;;;;;;;;18.16;100.00;95475.03;1040626;28;20402;-64
2021/07/31 01:08:26;;;;;;;;;;;;;;;18.16;100.00;95475.03;1040806;28;19913;-65
2021/07/31 01:08:56;;;;;;;;;;;;;;;18.15;100.00;95473.47;1044848;28;19940;-65
2021/07/31 01:09:26;;;;;;;;;;;;;;;18.16;100.00;95481.25;1044972;28;19913;-64
2021/07/31 01:09:57;;;;;;;;;;;;;;;18.16;100.00;95477.75;1048925;28;19912;-64
2021/07/31 01:10:27;;;;;;;;;;;;;;;18.16;100.00;95475.03;1044912;28;20423;-65
2021/07/31 01:10:57;;;;;;;;;;;;;;;18.17;100.00;95472.03;1044880;28;19959;-64
2021/07/31 01:11:28;;;;;;;;;;;;;;;18.13;100.00;95470.31;1049058;28;20381;-65
2021/07/31 01:11:58;;;;;;;;;;;;;;;18.15;100.00;95478.88;1048870;28;20328;-65
2021/07/31 01:12:29;;;;;;;;;;;;;;;18.15;100.00;95470.75;1049016;28;19943;-64
2021/07/31 01:13:00;;;;;;;;;;;;;;;18.13;100.00;95473.81;1044797;28;20091;-64
2021/07/31 01:13:30;;;;;;;;;;;;;;;18.13;100.00;95475.72;1040795;28;20286;-64
2021/07/31 01:14:01;;;;;;;;;;;;;;;18.12;100.00;95472.22;1040667;28;19951;-65
2021/07/31 01:14:31;;;;;;;;;;;;;;;18.08;100.00;95474.00;1044747;28;20000;-65
2021/07/31 01:15:01;;;;;;;;;;;;;;;18.05;100.00;95471.94;1049175;28;19919;-65
2021/07/31 01:15:31;;;;;;;;;;;;;;;18.02;100.00;95474.53;1053465;28;19923;-65
2021/07/31 01:16:07;;;;;;;;;;;;;;;18.05;100.00;95473.84;1053375;28;20373;-65
2021/07/31 01:16:37;;;;;;;;;;;;;;;18.04;100.00;95464.97;1053452;28;19912;-64
2021/07/31 01:17:11;;;;;;;;;;;;;;;18.07;100.00;95466.22;1048599;28;19955;-65
2021/07/31 01:17:42;;;;;;;;;;;;;;;18.06;100.00;95473.53;1048987;28;19949;-64
2021/07/31 01:18:12;;;;;;;;;;;;;;;18.05;100.00;95469.25;1048927;28;19970;-64
2021/07/31 01:18:42;;;;;;;;;;;;;;;18.06;100.00;95468.13;1049588;28;19951;-65
2021/07/31 01:19:12;;;;;;;;;;;;;;;18.08;100.00;95468.59;1053319;28;19923;-64
2021/07/31 01:19:43;;;;;;;;;;;;;;;18.09;100.00;95467.47;1053534;28;19912;-65
2021/07/31 01:20:13;;;;;;;;;;;;;;;18.10;100.00;95470.97;1053361;28;19916;-65
2021/07/31 01:20:43;;;;;;;;;;;;;;;18.10;100.00;95469.03;1053326;28;20272;-64
2021/07/31 01:21:40;;;;;;;;;;;;;;;18.11;100.00;95472.53;1053434;28;19955;-64
2021/07/31 01:22:10;;;;;;;;;;;;;;;18.09;100.00;95472.09;1050208;28;19969;-64
2021/07/31 01:22:40;;;;;;;;;;;;;;;18.10;100.00;95474.44;1053393;28;19973;-64
2021/07/31 01:23:11;;;;;;;;;;;;;;;18.11;100.00;95469.84;1053386;28;19916;-64
2021/07/31 01:23:41;;;;;;;;;;;;;;;18.13;100.00;95470.31;1053446;28;19940;-64
2021/07/31 01:24:12;;;;;;;;;;;;;;;18.14;100.00;95467.25;1053394;28;20391;-64
2021/07/31 01:24:42;;;;;;;;;;;;;;;18.15;100.00;95463.44;1053382;28;19943;-64
2021/07/31 01:25:12;;;;;;;;;;;;;;;18.12;100.00;95468.72;1053442;28;19920;-64
2021/07/31 01:25:43;;;;;;;;;;;;;;;18.13;100.00;95467.59;1053438;28;19914;-64
2021/07/31 01:26:13;;;;;;;;;;;;;;;18.11;100.00;95469.84;1053398;28;19916;-64
2021/07/31 01:26:44;;;;;;;;;;;;;;;18.11;100.00;95476.03;1053283;28;19908;-64
2021/07/31 01:27:15;;;;;;;;;;;;;;;18.09;100.00;95472.09;1053371;28;19916;-64
2021/07/31 01:27:45;;;;;;;;;;;;;;;18.12;100.00;95474.13;1053419;28;19908;-63
2021/07/31 01:28:15;;;;;;;;;;;;;;;18.11;100.00;95475.25;1053452;28;19912;-63
2021/07/31 01:28:46;;;;;;;;;;;;;;;18.12;100.00;95471.44;1053142;28;19915;-63
2021/07/31 01:29:16;;;;;;;;;;;;;;;18.11;100.00;95473.31;1053455;28;19916;-64
2021/07/31 01:29:47;;;;;;;;;;;;;;;18.12;100.00;95471.44;1053201;28;20426;-65
2021/07/31 01:30:17;;;;;;;;;;;;;;;18.10;100.00;95474.44;1053442;28;20402;-65
2021/07/31 01:30:48;;;;;;;;;;;;;;;18.08;100.00;95474.00;1053290;28;19958;-65
2021/07/31 01:31:18;;;;;;;;;;;;;;;18.08;100.00;95478.63;1053411;28;19915;-65
2021/07/31 01:31:48;;;;;;;;;;;;;;;18.08;100.00;95473.22;1053404;28;19904;-65
2021/07/31 01:32:18;;;;;;;;;;;;;;;18.08;100.00;95474.00;1053235;28;19923;-65
2021/07/31 01:32:49;;;;;;;;;;;;;;;18.10;100.00;95479.84;1053292;28;20362;-65
2021/07/31 01:33:19;;;;;;;;;;;;;;;18.14;100.00;95477.28;1053425;28;19923;-65
2021/07/31 01:33:49;;;;;;;;;;;;;;;18.13;100.00;95479.22;1053382;28;20038;-65
2021/07/31 01:34:20;;;;;;;;;;;;;;;18.13;100.00;95473.81;1053395;28;19919;-65
2021/07/31 01:34:50;;;;;;;;;;;;;;;18.10;100.00;95470.97;1053247;28;19958;-63
2021/07/31 01:35:20;;;;;;;;;;;;;;;18.06;100.00;95480.84;1053166;28;19920;-62
2021/07/31 01:35:50;;;;;;;;;;;;;;;18.06;100.00;95478.13;1053304;28;20431;-64
2021/07/31 01:36:21;;;;;;;;;;;;;;;18.07;100.00;95471.63;1053355;28;19920;-65
2021/07/31 01:36:51;;;;;;;;;;;;;;;18.07;100.00;95471.63;1053224;28;19904;-65
2021/07/31 01:37:21;;;;;;;;;;;;;;;18.07;100.00;95469.72;1053289;28;19969;-65
2021/07/31 01:37:52;;;;;;;;;;;;;;;18.08;100.00;95470.50;1053244;28;20365;-63
2021/07/31 01:38:22;;;;;;;;;;;;;;;18.05;100.00;95480.06;1053276;28;19920;-64
2021/07/31 01:38:52;;;;;;;;;;;;;;;18.05;100.00;95476.56;1053296;28;19973;-64
2021/07/31 01:39:22;;;;;;;;;;;;;;;18.05;100.00;95469.25;1053243;28;19935;-65
2021/07/31 01:39:53;;;;;;;;;;;;;;;18.08;100.00;95462.41;1053189;28;19904;-64
2021/07/31 01:40:23;;;;;;;;;;;;;;;18.10;100.00;95471.75;1053237;28;20442;-64
2021/07/31 01:40:53;;;;;;;;;;;;;;;18.10;100.00;95466.34;1053133;28;19923;-64
2021/07/31 01:41:23;;;;;;;;;;;;;;;18.09;100.00;95470.16;1053196;28;19912;-64
2021/07/31 01:41:54;;;;;;;;;;;;;;;18.11;100.00;95464.41;1053289;28;19912;-64
2021/07/31 01:42:24;;;;;;;;;;;;;;;18.09;100.00;95474.78;1053234;28;19916;-64
2021/07/31 01:42:56;;;;;;;;;;;;;;;18.07;100.00;95467.00;1053244;28;19916;-64
2021/07/31 01:43:27;;;;;;;;;;;;;;;18.07;100.00;95472.41;1053212;28;20353;-64
2021/07/31 01:43:57;;;;;;;;;;;;;;;18.09;100.00;95480.97;1053106;28;19955;-64
2021/07/31 01:44:27;;;;;;;;;;;;;;;18.10;100.00;95471.75;1048736;28;19917;-64
2021/07/31 01:44:58;;;;;;;;;;;;;;;18.10;100.00;95485.25;1048438;28;19908;-64
2021/07/31 01:45:28;;;;;;;;;;;;;;;18.07;100.00;95477.03;1048483;28;19928;-63
2021/07/31 01:45:58;;;;;;;;;;;;;;;18.06;100.00;95480.84;1048828;28;20363;-64
2021/07/31 01:46:28;;;;;;;;;;;;;;;18.06;100.00;95478.94;1053228;28;19981;-63
2021/07/31 01:46:59;;;;;;;;;;;;;;;18.08;100.00;95481.31;1052930;28;19919;-64
2021/07/31 01:47:29;;;;;;;;;;;;;;;18.09;100.00;95478.28;1053095;28;19939;-64
2021/07/31 01:47:59;;;;;;;;;;;;;;;18.09;100.00;95483.69;1053194;28;20377;-63
2021/07/31 01:48:30;;;;;;;;;;;;;;;18.10;100.00;95476.38;1053245;28;19981;-64
2021/07/31 01:49:00;;;;;;;;;;;;;;;18.10;100.00;95481.78;1053007;28;19947;-64
2021/07/31 01:49:30;;;;;;;;;;;;;;;18.11;100.00;95481.44;1053020;28;19920;-64
2021/07/31 01:50:01;;;;;;;;;;;;;;;18.09;100.00;95472.09;1053242;28;20007;-64
2021/07/31 01:50:31;;;;;;;;;;;;;;;18.09;100.00;95485.59;1053251;28;19963;-64
2021/07/31 01:51:01;;;;;;;;;;;;;;;18.09;100.00;95475.56;1053297;28;19916;-64
2021/07/31 01:51:32;;;;;;;;;;;;;;;18.10;100.00;95476.38;1053213;28;19920;-64
2021/07/31 01:52:02;;;;;;;;;;;;;;;18.10;100.00;95471.75;1053317;28;19931;-65
2021/07/31 01:52:32;;;;;;;;;;;;;;;18.11;100.00;95478.72;1053271;28;19916;-65
2021/07/31 01:53:02;;;;;;;;;;;;;;;18.12;100.00;95474.94;1053302;28;19992;-65
2021/07/31 01:53:33;;;;;;;;;;;;;;;18.14;100.00;95471.88;1053169;28;19927;-65
2021/07/31 01:54:03;;;;;;;;;;;;;;;18.12;100.00;95474.94;1048626;28;19913;-66
2021/07/31 01:54:33;;;;;;;;;;;;;;;18.13;100.00;95475.72;1048702;28;20289;-64
2021/07/31 01:55:04;;;;;;;;;;;;;;;18.12;100.00;95471.44;1048688;28;19987;-64
2021/07/31 01:55:34;;;;;;;;;;;;;;;18.11;100.00;95467.91;1048653;28;19923;-65
2021/07/31 01:56:04;;;;;;;;;;;;;;;18.12;100.00;95474.94;1053278;28;19919;-65
2021/07/31 01:56:35;;;;;;;;;;;;;;;18.10;100.00;95469.03;1053260;28;19986;-65
2021/07/31 01:57:05;;;;;;;;;;;;;;;18.11;100.00;95476.03;1053279;28;20384;-64
2021/07/31 01:57:35;;;;;;;;;;;;;;;18.10;100.00;95474.44;1053094;28;20381;-64
2021/07/31 01:58:05;;;;;;;;;;;;;;;18.09;100.00;95472.88;1053238;28;19997;-64
2021/07/31 01:58:36;;;;;;;;;;;;;;;18.06;100.00;95470.03;1052958;28;19939;-64
2021/07/31 01:59:06;;;;;;;;;;;;;;;18.06;100.00;95476.22;1053172;28;19918;-64
2021/07/31 01:59:36;;;;;;;;;;;;;;;18.07;100.00;95471.63;1053235;28;19916;-64
2021/07/31 02:00:07;;;;;;;;;;;;;;;18.08;100.00;95476.72;1053168;28;20536;-64
2021/07/31 02:00:37;;;;;;;;;;;;;;;18.08;100.00;95479.41;1053105;28;19916;-64
2021/07/31 02:01:07;;;;;;;;;;;;;;;18.07;100.00;95483.25;1053159;28;20002;-64
2021/07/31 02:01:38;;;;;;;;;;;;;;;18.07;100.00;95475.13;1053215;28;19912;-64
2021/07/31 02:02:08;;;;;;;;;;;;;;;18.04;100.00;95470.38;1053154;28;19913;-64
2021/07/31 02:02:38;;;;;;;;;;;;;;;18.05;100.00;95480.06;1053249;28;19919;-64
2021/07/31 02:03:09;;;;;;;;;;;;;;;18.06;100.00;95478.94;1053150;28;19920;-64
2021/07/31 02:03:39;;;;;;;;;;;;;;;18.06;100.00;95475.44;1053239;28;19916;-64
2021/07/31 02:04:09;;;;;;;;;;;;;;;18.07;100.00;95472.41;1053161;28;20281;-64
2021/07/31 02:04:39;;;;;;;;;;;;;;;18.06;100.00;95480.84;1052980;28;19947;-64
2021/07/31 02:05:10;;;;;;;;;;;;;;;18.05;100.00;95485.47;1052926;28;19920;-64
2021/07/31 02:05:40;;;;;;;;;;;;;;;18.06;100.00;95478.13;1053261;28;20002;-64
2021/07/31 02:06:10;;;;;;;;;;;;;;;18.06;100.00;95478.94;1053117;28;19916;-64
2021/07/31 02:06:41;;;;;;;;;;;;;;;18.04;100.00;95478.47;1048453;28;19963;-64
2021/07/31 02:07:11;;;;;;;;;;;;;;;18.05;100.00;95474.66;1048665;28;19917;-64
2021/07/31 02:07:41;;;;;;;;;;;;;;;18.05;100.00;95482.75;1048721;28;19913;-64
2021/07/31 02:08:11;;;;;;;;;;;;;;;18.05;100.00;95471.94;1048661;28;19948;-64
2021/07/31 02:08:42;;;;;;;;;;;;;;;18.04;100.00;95475.78;1053242;28;19908;-64
2021/07/31 02:09:12;;;;;;;;;;;;;;;18.02;100.00;95475.31;1053122;28;20383;-65
2021/07/31 02:09:42;;;;;;;;;;;;;;;18.04;100.00;95475.78;1053122;28;19959;-64
2021/07/31 02:10:13;;;;;;;;;;;;;;;18.01;100.00;95472.94;1053121;28;19962;-64
2021/07/31 02:10:43;;;;;;;;;;;;;;;17.99;100.00;95475.97;1048634;28;19958;-64
2021/07/31 02:11:13;;;;;;;;;;;;;;;17.95;100.00;95476.97;1048677;28;19912;-64
2021/07/31 02:11:44;;;;;;;;;;;;;;;17.97;100.00;95472.81;1048593;28;19913;-64
2021/07/31 02:12:14;;;;;;;;;;;;;;;17.98;100.00;95474.41;1048605;28;19916;-64
2021/07/31 02:12:44;;;;;;;;;;;;;;;17.98;100.00;95476.31;1053210;28;19912;-64
2021/07/31 02:13:14;;;;;;;;;;;;;;;17.98;100.00;95470.91;1053129;28;19958;-64
2021/07/31 02:13:45;;;;;;;;;;;;;;;18.01;100.00;95479.13;1053059;28;19957;-64
2021/07/31 02:14:15;;;;;;;;;;;;;;;18.02;100.00;95474.53;1053121;28;20387;-64
2021/07/31 02:14:45;;;;;;;;;;;;;;;18.00;100.00;95471.34;1053168;28;19916;-64
2021/07/31 02:15:16;;;;;;;;;;;;;;;18.00;100.00;95471.34;1053134;28;19908;-64
2021/07/31 02:15:46;;;;;;;;;;;;;;;17.98;100.00;95477.09;1053151;28;20486;-64
2021/07/31 02:16:23;;;;;;;;;;;;;;;17.97;100.00;95467.41;1053043;28;19912;-64
2021/07/31 02:16:53;;;;;;;;;;;;;;;17.95;100.00;95476.97;1053205;28;19984;-65
2021/07/31 02:17:23;;;;;;;;;;;;;;;17.96;100.00;95470.41;1053130;28;19989;-64
2021/07/31 02:17:53;;;;;;;;;;;;;;;17.98;100.00;95473.59;1053217;28;20349;-65
2021/07/31 02:18:24;;;;;;;;;;;;;;;17.98;100.00;95471.69;1053075;28;19951;-64
2021/07/31 02:18:54;;;;;;;;;;;;;;;17.96;100.00;95468.50;1052965;28;19958;-64
2021/07/31 02:19:24;;;;;;;;;;;;;;;17.97;100.00;95478.22;1052932;28;19922;-64
2021/07/31 02:19:55;;;;;;;;;;;;;;;17.96;100.00;95471.22;1053195;28;19961;-64
2021/07/31 02:20:25;;;;;;;;;;;;;;;17.98;100.00;95470.91;1053155;28;19912;-64
2021/07/31 02:20:55;;;;;;;;;;;;;;;17.97;100.00;95472.81;1053069;28;20301;-64
2021/07/31 02:21:25;;;;;;;;;;;;;;;17.99;100.00;95477.88;1053000;28;19912;-64
2021/07/31 02:21:56;;;;;;;;;;;;;;;18.00;100.00;95477.53;1053220;28;19912;-64
2021/07/31 02:22:26;;;;;;;;;;;;;;;17.99;100.00;95478.69;1053118;28;19912;-64
2021/07/31 02:22:56;;;;;;;;;;;;;;;18.02;100.00;95483.44;1053106;28;19969;-64
2021/07/31 02:23:27;;;;;;;;;;;;;;;18.01;100.00;95478.34;1053122;28;19923;-64
2021/07/31 02:23:57;;;;;;;;;;;;;;;18.00;100.00;95479.47;1053135;28;20270;-64
2021/07/31 02:24:27;;;;;;;;;;;;;;;18.00;100.00;95474.06;1053111;28;19916;-64
2021/07/31 02:24:58;;;;;;;;;;;;;;;17.98;100.00;95473.59;1053103;28;20200;-64
2021/07/31 02:25:28;;;;;;;;;;;;;;;18.00;100.00;95476.75;1053089;28;19951;-64
2021/07/31 02:25:58;;;;;;;;;;;;;;;18.03;100.00;95476.13;1052837;28;19916;-64
2021/07/31 02:26:28;;;;;;;;;;;;;;;18.02;100.00;95472.63;1052910;28;20343;-64
2021/07/31 02:26:59;;;;;;;;;;;;;;;18.03;100.00;95471.50;1053107;28;19919;-64
2021/07/31 02:27:29;;;;;;;;;;;;;;;18.06;100.00;95475.44;1053124;28;19908;-64
2021/07/31 02:27:59;;;;;;;;;;;;;;;18.01;100.00;95476.41;1053169;28;19962;-64
2021/07/31 02:28:30;;;;;;;;;;;;;;;18.04;100.00;95473.06;1053093;28;19945;-64
2021/07/31 02:29:00;;;;;;;;;;;;;;;18.05;100.00;95471.94;1052876;28;20280;-64
2021/07/31 02:29:30;;;;;;;;;;;;;;;18.04;100.00;95464.16;1053133;28;19916;-64
2021/07/31 02:30:00;;;;;;;;;;;;;;;18.04;100.00;95470.38;1052840;28;19942;-64
2021/07/31 02:30:31;;;;;;;;;;;;;;;18.06;100.00;95472.72;1053093;28;19922;-64
2021/07/31 02:31:01;;;;;;;;;;;;;;;18.05;100.00;95471.16;1053026;28;19966;-64
2021/07/31 02:31:31;;;;;;;;;;;;;;;18.04;100.00;95467.66;1053074;28;19916;-64
2021/07/31 02:32:02;;;;;;;;;;;;;;;18.02;100.00;95467.22;1053156;28;20349;-64
2021/07/31 02:32:32;;;;;;;;;;;;;;;18.03;100.00;95459.88;1053060;28;19998;-64
2021/07/31 02:33:02;;;;;;;;;;;;;;;18.03;100.00;95463.38;1052868;28;19919;-64
2021/07/31 02:33:32;;;;;;;;;;;;;;;18.03;100.00;95462.59;1053082;28;20353;-64
2021/07/31 02:34:03;;;;;;;;;;;;;;;18.02;100.00;95463.72;1053124;28;19916;-64
2021/07/31 02:34:33;;;;;;;;;;;;;;;18.04;100.00;95461.47;1053086;28;19951;-64
2021/07/31 02:35:03;;;;;;;;;;;;;;;18.06;100.00;95465.41;1052756;28;20350;-64
2021/07/31 02:35:34;;;;;;;;;;;;;;;18.03;100.00;95460.69;1053064;28;19988;-64
2021/07/31 02:36:04;;;;;;;;;;;;;;;18.04;100.00;95462.25;1053077;28;20303;-64
2021/07/31 02:36:35;;;;;;;;;;;;;;;18.06;100.00;95464.63;1053091;28;19912;-64